sensor_id;sensor_type;location;lat;lon;timestamp;P1;durP1;ratioP1;P2;durP2;ratioP2
71648;SDS011;70112;45.624;11.760;2024-01-10T00:10:23;44.90;;;29.40;;
71648;SDS011;70112;45.624;11.760;2024-01-10T00:13:52;47.80;;;28.80;;
71648;SDS011;70112;45.624;11.760;2024-01-10T00:28:07;37.50;;;24.50;;
71648;SDS011;70112;45.624;11.760;2024-01-10T00:34:55;39.30;;;24.50;;
71648;SDS011;70112;45.624;11.760;2024-01-10T00:38:10;36.60;;;24.30;;
71648;SDS011;70112;45.624;11.760;2024-01-10T00:41:13;47.10;;;28.40;;
71648;SDS011;70112;45.624;11.760;2024-01-10T00:54:58;36.40;;;23.70;;
71648;SDS011;70112;45.624;11.760;2024-01-10T01:12:18;38.60;;;23.90;;
71648;SDS011;70112;45.624;11.760;2024-01-10T01:15:53;34.90;;;23.70;;
71648;SDS011;70112;45.624;11.760;2024-01-10T01:29:17;43.10;;;25.10;;
71648;SDS011;70112;45.624;11.760;2024-01-10T01:32:08;32.50;;;22.60;;
71648;SDS011;70112;45.624;11.760;2024-01-10T01:35:34;36.30;;;23.80;;
71648;SDS011;70112;45.624;11.760;2024-01-10T01:38:48;36.40;;;23.10;;
71648;SDS011;70112;45.624;11.760;2024-01-10T01:42:00;45.70;;;26.10;;
71648;SDS011;70112;45.624;11.760;2024-01-10T01:56:05;36.10;;;23.70;;
71648;SDS011;70112;45.624;11.760;2024-01-10T01:58:58;33.60;;;22.10;;
71648;SDS011;70112;45.624;11.760;2024-01-10T02:02:02;38.00;;;24.60;;
71648;SDS011;70112;45.624;11.760;2024-01-10T02:05:08;37.60;;;24.00;;
71648;SDS011;70112;45.624;11.760;2024-01-10T02:08:58;35.20;;;22.70;;
71648;SDS011;70112;45.624;11.760;2024-01-10T02:23:12;33.20;;;21.10;;
71648;SDS011;70112;45.624;11.760;2024-01-10T02:26:47;32.80;;;19.10;;
71648;SDS011;70112;45.624;11.760;2024-01-10T02:33:04;31.50;;;20.30;;
71648;SDS011;70112;45.624;11.760;2024-01-10T02:35:57;34.50;;;22.70;;
71648;SDS011;70112;45.624;11.760;2024-01-10T02:42:07;30.30;;;20.30;;
71648;SDS011;70112;45.624;11.760;2024-01-10T02:45:01;31.20;;;19.70;;
71648;SDS011;70112;45.624;11.760;2024-01-10T03:01:09;27.00;;;16.80;;
71648;SDS011;70112;45.624;11.760;2024-01-10T03:03:53;24.50;;;15.90;;
71648;SDS011;70112;45.624;11.760;2024-01-10T03:07:13;23.90;;;16.20;;
71648;SDS011;70112;45.624;11.760;2024-01-10T03:20:43;23.30;;;16.50;;
71648;SDS011;70112;45.624;11.760;2024-01-10T03:30:50;31.70;;;19.50;;
71648;SDS011;70112;45.624;11.760;2024-01-10T03:33:21;45.60;;;23.40;;
71648;SDS011;70112;45.624;11.760;2024-01-10T03:40:07;49.30;;;23.90;;
71648;SDS011;70112;45.624;11.760;2024-01-10T03:43:21;133.40;;;50.80;;
71648;SDS011;70112;45.624;11.760;2024-01-10T03:46:49;200.00;;;74.50;;
71648;SDS011;70112;45.624;11.760;2024-01-10T03:54:08;99.00;;;41.30;;
71648;SDS011;70112;45.624;11.760;2024-01-10T04:00:29;58.90;;;28.40;;
71648;SDS011;70112;45.624;11.760;2024-01-10T04:06:12;37.50;;;20.80;;
71648;SDS011;70112;45.624;11.760;2024-01-10T04:09:23;37.80;;;21.20;;
71648;SDS011;70112;45.624;11.760;2024-01-10T04:15:26;25.20;;;17.90;;
71648;SDS011;70112;45.624;11.760;2024-01-10T04:25:15;21.70;;;15.20;;
71648;SDS011;70112;45.624;11.760;2024-01-10T04:27:53;23.10;;;15.90;;
71648;SDS011;70112;45.624;11.760;2024-01-10T04:31:07;24.00;;;14.30;;
71648;SDS011;70112;45.624;11.760;2024-01-10T04:47:16;20.20;;;14.60;;
71648;SDS011;70112;45.624;11.760;2024-01-10T04:52:48;25.20;;;15.90;;
71648;SDS011;70112;45.624;11.760;2024-01-10T04:55:28;24.00;;;16.20;;
71648;SDS011;70112;45.624;11.760;2024-01-10T04:58:18;29.00;;;18.70;;
71648;SDS011;70112;45.624;11.760;2024-01-10T05:00:57;25.40;;;16.50;;
71648;SDS011;70112;45.624;11.760;2024-01-10T05:08:00;22.00;;;13.70;;
71648;SDS011;70112;45.624;11.760;2024-01-10T05:11:01;30.10;;;18.30;;
71648;SDS011;70112;45.624;11.760;2024-01-10T05:18:07;22.80;;;15.60;;
71648;SDS011;70112;45.624;11.760;2024-01-10T05:24:50;22.90;;;15.90;;
71648;SDS011;70112;45.624;11.760;2024-01-10T05:30:39;23.50;;;15.30;;
71648;SDS011;70112;45.624;11.760;2024-01-10T05:33:26;29.10;;;17.00;;
71648;SDS011;70112;45.624;11.760;2024-01-10T05:36:13;32.10;;;19.50;;
71648;SDS011;70112;45.624;11.760;2024-01-10T05:38:51;27.40;;;17.20;;
71648;SDS011;70112;45.624;11.760;2024-01-10T05:48:18;26.30;;;15.70;;
71648;SDS011;70112;45.624;11.760;2024-01-10T05:51:32;21.70;;;16.00;;
71648;SDS011;70112;45.624;11.760;2024-01-10T06:05:32;20.60;;;13.80;;
71648;SDS011;70112;45.624;11.760;2024-01-10T06:08:11;25.50;;;14.10;;
71648;SDS011;70112;45.624;11.760;2024-01-10T06:14:43;25.90;;;14.80;;
71648;SDS011;70112;45.624;11.760;2024-01-10T06:17:17;26.30;;;17.30;;
71648;SDS011;70112;45.624;11.760;2024-01-10T06:23:27;25.90;;;18.00;;
71648;SDS011;70112;45.624;11.760;2024-01-10T06:26:23;21.80;;;15.00;;
71648;SDS011;70112;45.624;11.760;2024-01-10T06:29:12;28.20;;;17.00;;
71648;SDS011;70112;45.624;11.760;2024-01-10T06:31:57;23.90;;;15.50;;
71648;SDS011;70112;45.624;11.760;2024-01-10T06:34:31;19.30;;;13.10;;
71648;SDS011;70112;45.624;11.760;2024-01-10T06:37:38;18.00;;;13.00;;
71648;SDS011;70112;45.624;11.760;2024-01-10T06:40:37;20.70;;;13.20;;
71648;SDS011;70112;45.624;11.760;2024-01-10T06:43:09;19.10;;;12.40;;
71648;SDS011;70112;45.624;11.760;2024-01-10T06:45:57;26.20;;;14.00;;
71648;SDS011;70112;45.624;11.760;2024-01-10T06:49:06;32.00;;;18.80;;
71648;SDS011;70112;45.624;11.760;2024-01-10T06:51:40;33.10;;;18.60;;
71648;SDS011;70112;45.624;11.760;2024-01-10T06:54:39;35.50;;;18.20;;
71648;SDS011;70112;45.624;11.760;2024-01-10T06:57:20;38.10;;;19.00;;
71648;SDS011;70112;45.624;11.760;2024-01-10T07:00:12;31.80;;;19.10;;
71648;SDS011;70112;45.624;11.760;2024-01-10T07:02:39;32.80;;;18.50;;
71648;SDS011;70112;45.624;11.760;2024-01-10T07:05:22;34.00;;;18.30;;
71648;SDS011;70112;45.624;11.760;2024-01-10T07:08:22;34.60;;;18.70;;
71648;SDS011;70112;45.624;11.760;2024-01-10T07:10:48;29.70;;;17.40;;
71648;SDS011;70112;45.624;11.760;2024-01-10T07:13:24;22.00;;;15.20;;
71648;SDS011;70112;45.624;11.760;2024-01-10T07:16:02;28.00;;;16.30;;
71648;SDS011;70112;45.624;11.760;2024-01-10T07:18:40;31.70;;;17.30;;
71648;SDS011;70112;45.624;11.760;2024-01-10T07:21:13;25.10;;;15.60;;
71648;SDS011;70112;45.624;11.760;2024-01-10T07:23:44;24.10;;;17.30;;
71648;SDS011;70112;45.624;11.760;2024-01-10T07:26:38;24.40;;;16.30;;
71648;SDS011;70112;45.624;11.760;2024-01-10T07:29:27;28.50;;;18.30;;
71648;SDS011;70112;45.624;11.760;2024-01-10T09:48:14;15.50;;;9.80;;
71648;SDS011;70112;45.624;11.760;2024-01-10T09:50:48;17.70;;;10.00;;
71648;SDS011;70112;45.624;11.760;2024-01-10T09:53:22;15.30;;;10.30;;
71648;SDS011;70112;45.624;11.760;2024-01-10T09:55:55;15.90;;;10.10;;
71648;SDS011;70112;45.624;11.760;2024-01-10T09:58:29;17.30;;;9.70;;
71648;SDS011;70112;45.624;11.760;2024-01-10T10:01:14;21.10;;;10.40;;
71648;SDS011;70112;45.624;11.760;2024-01-10T10:07:08;16.90;;;10.00;;
71648;SDS011;70112;45.624;11.760;2024-01-10T10:09:56;16.40;;;9.60;;
71648;SDS011;70112;45.624;11.760;2024-01-10T10:12:51;15.90;;;9.50;;
71648;SDS011;70112;45.624;11.760;2024-01-10T10:16:04;12.70;;;8.80;;
71648;SDS011;70112;45.624;11.760;2024-01-10T10:19:08;14.20;;;9.30;;
71648;SDS011;70112;45.624;11.760;2024-01-10T10:21:48;16.20;;;9.10;;
71648;SDS011;70112;45.624;11.760;2024-01-10T10:24:14;17.80;;;8.40;;
71648;SDS011;70112;45.624;11.760;2024-01-10T10:27:00;14.40;;;9.10;;
71648;SDS011;70112;45.624;11.760;2024-01-10T10:29:47;10.40;;;8.00;;
71648;SDS011;70112;45.624;11.760;2024-01-10T10:32:13;13.60;;;8.90;;
71648;SDS011;70112;45.624;11.760;2024-01-10T10:34:41;20.20;;;11.50;;
71648;SDS011;70112;45.624;11.760;2024-01-10T10:37:51;13.10;;;9.00;;
71648;SDS011;70112;45.624;11.760;2024-01-10T10:40:43;19.20;;;9.10;;
71648;SDS011;70112;45.624;11.760;2024-01-10T10:43:13;13.90;;;8.70;;
71648;SDS011;70112;45.624;11.760;2024-01-10T10:46:08;30.30;;;15.10;;
71648;SDS011;70112;45.624;11.760;2024-01-10T10:49:03;13.40;;;9.70;;
71648;SDS011;70112;45.624;11.760;2024-01-10T10:51:36;16.20;;;10.30;;
71648;SDS011;70112;45.624;11.760;2024-01-10T10:54:12;9.50;;;7.30;;
71648;SDS011;70112;45.624;11.760;2024-01-10T10:57:10;15.70;;;8.00;;
71648;SDS011;70112;45.624;11.760;2024-01-10T10:59:37;40.90;;;22.10;;
71648;SDS011;70112;45.624;11.760;2024-01-10T11:02:12;24.10;;;13.10;;
71648;SDS011;70112;45.624;11.760;2024-01-10T11:07:38;16.10;;;8.80;;
71648;SDS011;70112;45.624;11.760;2024-01-10T11:10:18;10.20;;;7.10;;
71648;SDS011;70112;45.624;11.760;2024-01-10T11:28:35;11.10;;;6.10;;
71648;SDS011;70112;45.624;11.760;2024-01-10T11:31:32;13.50;;;8.10;;
71648;SDS011;70112;45.624;11.760;2024-01-10T11:34:04;12.00;;;6.60;;
71648;SDS011;70112;45.624;11.760;2024-01-10T11:37:09;13.10;;;7.50;;
71648;SDS011;70112;45.624;11.760;2024-01-10T11:39:41;12.00;;;7.50;;
71648;SDS011;70112;45.624;11.760;2024-01-10T11:42:40;10.00;;;7.30;;
71648;SDS011;70112;45.624;11.760;2024-01-10T11:45:36;10.30;;;6.80;;
71648;SDS011;70112;45.624;11.760;2024-01-10T11:48:02;10.10;;;7.10;;
71648;SDS011;70112;45.624;11.760;2024-01-10T11:50:42;10.50;;;6.30;;
71648;SDS011;70112;45.624;11.760;2024-01-10T11:53:10;13.00;;;7.30;;
71648;SDS011;70112;45.624;11.760;2024-01-10T11:55:50;13.20;;;7.90;;
71648;SDS011;70112;45.624;11.760;2024-01-10T11:58:18;11.60;;;7.60;;
71648;SDS011;70112;45.624;11.760;2024-01-10T12:00:46;14.20;;;7.80;;
71648;SDS011;70112;45.624;11.760;2024-01-10T12:06:29;14.80;;;8.30;;
71648;SDS011;70112;45.624;11.760;2024-01-10T12:08:56;12.30;;;7.90;;
71648;SDS011;70112;45.624;11.760;2024-01-10T12:11:51;18.70;;;8.00;;
71648;SDS011;70112;45.624;11.760;2024-01-10T12:14:17;13.50;;;8.20;;
71648;SDS011;70112;45.624;11.760;2024-01-10T12:16:46;12.00;;;8.70;;
71648;SDS011;70112;45.624;11.760;2024-01-10T12:19:15;13.00;;;7.80;;
71648;SDS011;70112;45.624;11.760;2024-01-10T12:21:41;13.00;;;8.50;;
71648;SDS011;70112;45.624;11.760;2024-01-10T12:24:09;12.20;;;8.20;;
71648;SDS011;70112;45.624;11.760;2024-01-10T12:27:04;13.30;;;8.90;;
71648;SDS011;70112;45.624;11.760;2024-01-10T12:29:48;12.40;;;8.00;;
71648;SDS011;70112;45.624;11.760;2024-01-10T12:32:27;17.80;;;8.30;;
71648;SDS011;70112;45.624;11.760;2024-01-10T12:35:03;12.00;;;8.40;;
71648;SDS011;70112;45.624;11.760;2024-01-10T12:37:32;13.50;;;8.10;;
71648;SDS011;70112;45.624;11.760;2024-01-10T12:40:01;13.30;;;9.20;;
71648;SDS011;70112;45.624;11.760;2024-01-10T12:42:38;14.20;;;8.90;;
71648;SDS011;70112;45.624;11.760;2024-01-10T12:45:34;20.90;;;9.80;;
71648;SDS011;70112;45.624;11.760;2024-01-10T12:48:03;12.80;;;8.10;;
71648;SDS011;70112;45.624;11.760;2024-01-10T12:50:41;11.40;;;7.40;;
71648;SDS011;70112;45.624;11.760;2024-01-10T12:53:09;11.40;;;7.40;;
71648;SDS011;70112;45.624;11.760;2024-01-10T12:55:40;11.60;;;8.00;;
71648;SDS011;70112;45.624;11.760;2024-01-10T12:58:09;14.70;;;7.10;;
71648;SDS011;70112;45.624;11.760;2024-01-10T13:03:13;11.00;;;7.80;;
71648;SDS011;70112;45.624;11.760;2024-01-10T13:05:59;14.20;;;8.00;;
71648;SDS011;70112;45.624;11.760;2024-01-10T13:08:25;11.70;;;7.80;;
71648;SDS011;70112;45.624;11.760;2024-01-10T13:10:58;12.70;;;7.40;;
71648;SDS011;70112;45.624;11.760;2024-01-10T13:13:29;10.20;;;7.50;;
71648;SDS011;70112;45.624;11.760;2024-01-10T13:15:55;12.00;;;7.90;;
71648;SDS011;70112;45.624;11.760;2024-01-10T13:18:21;11.20;;;7.10;;
71648;SDS011;70112;45.624;11.760;2024-01-10T13:20:50;11.10;;;6.90;;
71648;SDS011;70112;45.624;11.760;2024-01-10T13:23:22;12.70;;;7.90;;
71648;SDS011;70112;45.624;11.760;2024-01-10T13:25:49;11.60;;;7.70;;
71648;SDS011;70112;45.624;11.760;2024-01-10T13:28:25;11.40;;;7.90;;
71648;SDS011;70112;45.624;11.760;2024-01-10T13:31:02;17.80;;;7.70;;
71648;SDS011;70112;45.624;11.760;2024-01-10T13:33:39;13.10;;;7.70;;
71648;SDS011;70112;45.624;11.760;2024-01-10T13:36:08;10.70;;;6.80;;
71648;SDS011;70112;45.624;11.760;2024-01-10T13:38:47;11.80;;;7.90;;
71648;SDS011;70112;45.624;11.760;2024-01-10T13:41:23;10.30;;;6.90;;
71648;SDS011;70112;45.624;11.760;2024-01-10T13:44:15;9.10;;;7.10;;
71648;SDS011;70112;45.624;11.760;2024-01-10T13:46:44;9.60;;;7.00;;
71648;SDS011;70112;45.624;11.760;2024-01-10T13:49:16;15.90;;;7.10;;
71648;SDS011;70112;45.624;11.760;2024-01-10T13:51:41;13.60;;;8.00;;
71648;SDS011;70112;45.624;11.760;2024-01-10T13:54:22;13.90;;;7.40;;
71648;SDS011;70112;45.624;11.760;2024-01-10T13:56:48;10.70;;;7.40;;
71648;SDS011;70112;45.624;11.760;2024-01-10T13:59:34;11.30;;;7.30;;
71648;SDS011;70112;45.624;11.760;2024-01-10T14:02:21;10.80;;;7.20;;
71648;SDS011;70112;45.624;11.760;2024-01-10T14:04:47;12.20;;;7.50;;
71648;SDS011;70112;45.624;11.760;2024-01-10T14:07:21;13.90;;;8.20;;
71648;SDS011;70112;45.624;11.760;2024-01-10T14:12:29;11.40;;;7.70;;
71648;SDS011;70112;45.624;11.760;2024-01-10T14:14:58;12.50;;;6.90;;
71648;SDS011;70112;45.624;11.760;2024-01-10T14:17:29;12.10;;;8.20;;
71648;SDS011;70112;45.624;11.760;2024-01-10T14:20:13;16.50;;;6.70;;
71648;SDS011;70112;45.624;11.760;2024-01-10T14:22:43;13.10;;;7.40;;
71648;SDS011;70112;45.624;11.760;2024-01-10T14:25:11;16.00;;;7.70;;
71648;SDS011;70112;45.624;11.760;2024-01-10T14:27:40;11.60;;;6.90;;
71648;SDS011;70112;45.624;11.760;2024-01-10T14:30:09;12.70;;;7.30;;
71648;SDS011;70112;45.624;11.760;2024-01-10T14:32:56;10.30;;;7.50;;
71648;SDS011;70112;45.624;11.760;2024-01-10T14:35:32;14.00;;;7.10;;
71648;SDS011;70112;45.624;11.760;2024-01-10T14:38:02;11.30;;;7.40;;
71648;SDS011;70112;45.624;11.760;2024-01-10T14:40:38;13.80;;;7.80;;
71648;SDS011;70112;45.624;11.760;2024-01-10T14:43:03;13.30;;;7.90;;
71648;SDS011;70112;45.624;11.760;2024-01-10T14:45:29;13.30;;;8.00;;
71648;SDS011;70112;45.624;11.760;2024-01-10T14:48:04;12.40;;;7.40;;
71648;SDS011;70112;45.624;11.760;2024-01-10T14:50:30;14.80;;;7.80;;
71648;SDS011;70112;45.624;11.760;2024-01-10T14:53:03;10.90;;;6.80;;
71648;SDS011;70112;45.624;11.760;2024-01-10T14:55:39;13.10;;;7.70;;
71648;SDS011;70112;45.624;11.760;2024-01-10T14:58:05;12.30;;;8.50;;
71648;SDS011;70112;45.624;11.760;2024-01-10T15:00:35;12.20;;;8.10;;
71648;SDS011;70112;45.624;11.760;2024-01-10T15:03:01;11.40;;;7.30;;
71648;SDS011;70112;45.624;11.760;2024-01-10T15:08:08;10.50;;;7.30;;
71648;SDS011;70112;45.624;11.760;2024-01-10T15:13:14;16.50;;;7.70;;
71648;SDS011;70112;45.624;11.760;2024-01-10T15:15:43;14.20;;;8.00;;
71648;SDS011;70112;45.624;11.760;2024-01-10T15:18:09;19.70;;;9.20;;
71648;SDS011;70112;45.624;11.760;2024-01-10T15:20:40;13.20;;;8.70;;
71648;SDS011;70112;45.624;11.760;2024-01-10T15:23:35;14.40;;;8.90;;
71648;SDS011;70112;45.624;11.760;2024-01-10T15:26:03;15.10;;;8.30;;
71648;SDS011;70112;45.624;11.760;2024-01-10T15:28:40;15.40;;;8.90;;
71648;SDS011;70112;45.624;11.760;2024-01-10T15:31:06;13.70;;;9.40;;
71648;SDS011;70112;45.624;11.760;2024-01-10T15:33:34;18.30;;;11.10;;
71648;SDS011;70112;45.624;11.760;2024-01-10T15:36:49;22.50;;;11.10;;
71648;SDS011;70112;45.624;11.760;2024-01-10T15:39:15;23.90;;;15.10;;
71648;SDS011;70112;45.624;11.760;2024-01-10T15:41:40;20.60;;;13.20;;
71648;SDS011;70112;45.624;11.760;2024-01-10T15:44:06;20.60;;;13.60;;
71648;SDS011;70112;45.624;11.760;2024-01-10T15:46:35;26.10;;;14.90;;
71648;SDS011;70112;45.624;11.760;2024-01-10T15:49:22;22.70;;;13.40;;
71648;SDS011;70112;45.624;11.760;2024-01-10T15:52:10;17.90;;;11.50;;
71648;SDS011;70112;45.624;11.760;2024-01-10T15:54:36;19.00;;;12.10;;
71648;SDS011;70112;45.624;11.760;2024-01-10T15:57:07;16.10;;;11.00;;
71648;SDS011;70112;45.624;11.760;2024-01-10T15:59:40;17.60;;;11.30;;
71648;SDS011;70112;45.624;11.760;2024-01-10T16:02:49;19.00;;;11.40;;
71648;SDS011;70112;45.624;11.760;2024-01-10T16:05:34;15.00;;;11.20;;
71648;SDS011;70112;45.624;11.760;2024-01-10T16:08:05;22.00;;;12.80;;
71648;SDS011;70112;45.624;11.760;2024-01-10T16:10:34;22.20;;;12.80;;
71648;SDS011;70112;45.624;11.760;2024-01-10T16:13:14;21.50;;;13.30;;
71648;SDS011;70112;45.624;11.760;2024-01-10T16:15:55;20.90;;;12.80;;
71648;SDS011;70112;45.624;11.760;2024-01-10T16:18:22;19.60;;;13.90;;
71648;SDS011;70112;45.624;11.760;2024-01-10T16:21:28;25.10;;;14.50;;
71648;SDS011;70112;45.624;11.760;2024-01-10T16:27:43;24.90;;;15.20;;
71648;SDS011;70112;45.624;11.760;2024-01-10T16:30:09;22.60;;;15.40;;
71648;SDS011;70112;45.624;11.760;2024-01-10T16:36:22;42.40;;;27.30;;
71648;SDS011;70112;45.624;11.760;2024-01-10T16:39:18;45.50;;;25.90;;
71648;SDS011;70112;45.624;11.760;2024-01-10T16:45:30;36.30;;;23.80;;
71648;SDS011;70112;45.624;11.760;2024-01-10T16:48:00;28.80;;;19.60;;
71648;SDS011;70112;45.624;11.760;2024-01-10T16:50:29;31.90;;;20.30;;
71648;SDS011;70112;45.624;11.760;2024-01-10T16:52:59;39.20;;;22.10;;
71648;SDS011;70112;45.624;11.760;2024-01-10T16:55:37;35.20;;;22.40;;
71648;SDS011;70112;45.624;11.760;2024-01-10T16:58:18;36.30;;;23.00;;
71648;SDS011;70112;45.624;11.760;2024-01-10T17:00:51;43.10;;;24.10;;
71648;SDS011;70112;45.624;11.760;2024-01-10T17:03:27;41.00;;;23.90;;
71648;SDS011;70112;45.624;11.760;2024-01-10T17:06:09;42.90;;;23.90;;
71648;SDS011;70112;45.624;11.760;2024-01-10T17:08:58;37.20;;;22.90;;
71648;SDS011;70112;45.624;11.760;2024-01-10T17:15:15;42.70;;;23.80;;
71648;SDS011;70112;45.624;11.760;2024-01-10T17:17:53;39.00;;;24.60;;
71648;SDS011;70112;45.624;11.760;2024-01-10T17:20:59;41.20;;;25.60;;
71648;SDS011;70112;45.624;11.760;2024-01-10T17:23:45;41.60;;;24.80;;
71648;SDS011;70112;45.624;11.760;2024-01-10T17:26:22;48.50;;;24.40;;
71648;SDS011;70112;45.624;11.760;2024-01-10T17:32:12;48.00;;;27.70;;
71648;SDS011;70112;45.624;11.760;2024-01-10T17:35:08;54.30;;;32.60;;
71648;SDS011;70112;45.624;11.760;2024-01-10T17:37:46;69.70;;;37.30;;
71648;SDS011;70112;45.624;11.760;2024-01-10T17:40:50;69.40;;;37.40;;
71648;SDS011;70112;45.624;11.760;2024-01-10T17:43:18;66.80;;;38.00;;
71648;SDS011;70112;45.624;11.760;2024-01-10T17:48:54;71.70;;;37.30;;
71648;SDS011;70112;45.624;11.760;2024-01-10T17:51:27;63.80;;;36.40;;
71648;SDS011;70112;45.624;11.760;2024-01-10T18:00:29;48.10;;;29.20;;
71648;SDS011;70112;45.624;11.760;2024-01-10T18:02:56;46.90;;;27.20;;
71648;SDS011;70112;45.624;11.760;2024-01-10T18:05:59;43.40;;;28.30;;
71648;SDS011;70112;45.624;11.760;2024-01-10T18:08:37;43.90;;;29.10;;
71648;SDS011;70112;45.624;11.760;2024-01-10T18:21:08;65.60;;;35.10;;
71648;SDS011;70112;45.624;11.760;2024-01-10T18:23:48;74.70;;;41.60;;
71648;SDS011;70112;45.624;11.760;2024-01-10T18:26:19;78.10;;;43.80;;
71648;SDS011;70112;45.624;11.760;2024-01-10T18:29:10;79.40;;;44.00;;
71648;SDS011;70112;45.624;11.760;2024-01-10T18:31:58;109.90;;;52.90;;
71648;SDS011;70112;45.624;11.760;2024-01-10T18:34:27;107.20;;;53.90;;
71648;SDS011;70112;45.624;11.760;2024-01-10T18:37:36;103.00;;;52.80;;
71648;SDS011;70112;45.624;11.760;2024-01-10T18:40:01;105.50;;;52.30;;
71648;SDS011;70112;45.624;11.760;2024-01-10T18:42:30;106.30;;;54.00;;
71648;SDS011;70112;45.624;11.760;2024-01-10T18:44:59;103.90;;;52.70;;
71648;SDS011;70112;45.624;11.760;2024-01-10T18:47:25;101.80;;;53.90;;
71648;SDS011;70112;45.624;11.760;2024-01-10T18:49:54;88.60;;;51.90;;
71648;SDS011;70112;45.624;11.760;2024-01-10T18:52:56;116.00;;;56.80;;
71648;SDS011;70112;45.624;11.760;2024-01-10T18:55:24;146.50;;;67.20;;
71648;SDS011;70112;45.624;11.760;2024-01-10T18:57:50;180.50;;;75.70;;
71648;SDS011;70112;45.624;11.760;2024-01-10T19:01:07;180.70;;;72.50;;
71648;SDS011;70112;45.624;11.760;2024-01-10T19:03:41;134.40;;;60.60;;
71648;SDS011;70112;45.624;11.760;2024-01-10T19:10:10;96.50;;;49.60;;
71648;SDS011;70112;45.624;11.760;2024-01-10T19:21:05;99.30;;;52.20;;
71648;SDS011;70112;45.624;11.760;2024-01-10T19:24:17;92.90;;;49.50;;
71648;SDS011;70112;45.624;11.760;2024-01-10T19:27:11;84.80;;;47.60;;
71648;SDS011;70112;45.624;11.760;2024-01-10T19:30:22;77.60;;;45.00;;
71648;SDS011;70112;45.624;11.760;2024-01-10T19:36:57;79.40;;;41.10;;
71648;SDS011;70112;45.624;11.760;2024-01-10T19:39:57;103.90;;;49.40;;
71648;SDS011;70112;45.624;11.760;2024-01-10T19:46:23;116.50;;;55.70;;
71648;SDS011;70112;45.624;11.760;2024-01-10T20:03:16;102.40;;;55.20;;
71648;SDS011;70112;45.624;11.760;2024-01-10T20:05:52;98.60;;;53.30;;
71648;SDS011;70112;45.624;11.760;2024-01-10T20:12:13;104.30;;;54.40;;
71648;SDS011;70112;45.624;11.760;2024-01-10T20:14:58;100.10;;;52.80;;
71648;SDS011;70112;45.624;11.760;2024-01-10T20:17:47;106.40;;;55.40;;
71648;SDS011;70112;45.624;11.760;2024-01-10T20:24:55;93.40;;;50.80;;
71648;SDS011;70112;45.624;11.760;2024-01-10T20:27:58;100.30;;;55.40;;
71648;SDS011;70112;45.624;11.760;2024-01-10T20:30:43;109.60;;;59.00;;
71648;SDS011;70112;45.624;11.760;2024-01-10T20:37:06;107.90;;;60.40;;
71648;SDS011;70112;45.624;11.760;2024-01-10T20:39:54;105.90;;;60.40;;
71648;SDS011;70112;45.624;11.760;2024-01-10T20:43:14;105.80;;;59.00;;
71648;SDS011;70112;45.624;11.760;2024-01-10T20:55:48;92.80;;;51.00;;
71648;SDS011;70112;45.624;11.760;2024-01-10T20:58:22;90.00;;;53.10;;
71648;SDS011;70112;45.624;11.760;2024-01-10T21:01:10;94.50;;;55.10;;
71648;SDS011;70112;45.624;11.760;2024-01-10T21:03:50;91.50;;;50.80;;
71648;SDS011;70112;45.624;11.760;2024-01-10T21:06:38;96.10;;;53.60;;
71648;SDS011;70112;45.624;11.760;2024-01-10T21:16:22;96.80;;;56.90;;
71648;SDS011;70112;45.624;11.760;2024-01-10T21:22:14;110.70;;;58.80;;
71648;SDS011;70112;45.624;11.760;2024-01-10T21:25:05;104.30;;;59.00;;
71648;SDS011;70112;45.624;11.760;2024-01-10T21:27:35;104.50;;;57.00;;
71648;SDS011;70112;45.624;11.760;2024-01-10T21:30:10;112.00;;;61.10;;
71648;SDS011;70112;45.624;11.760;2024-01-10T21:33:05;128.30;;;60.90;;
71648;SDS011;70112;45.624;11.760;2024-01-10T21:35:37;129.40;;;63.90;;
71648;SDS011;70112;45.624;11.760;2024-01-10T21:38:26;126.40;;;64.20;;
71648;SDS011;70112;45.624;11.760;2024-01-10T21:41:32;119.20;;;57.10;;
71648;SDS011;70112;45.624;11.760;2024-01-10T21:47:29;105.60;;;54.90;;
71648;SDS011;70112;45.624;11.760;2024-01-10T21:53:46;102.80;;;52.70;;
71648;SDS011;70112;45.624;11.760;2024-01-10T21:59:58;94.40;;;53.50;;
71648;SDS011;70112;45.624;11.760;2024-01-10T22:03:00;100.30;;;53.30;;
71648;SDS011;70112;45.624;11.760;2024-01-10T22:06:05;100.50;;;53.50;;
71648;SDS011;70112;45.624;11.760;2024-01-10T22:08:34;104.70;;;56.00;;
71648;SDS011;70112;45.624;11.760;2024-01-10T22:11:10;111.50;;;59.10;;
71648;SDS011;70112;45.624;11.760;2024-01-10T22:13:37;104.40;;;57.50;;
71648;SDS011;70112;45.624;11.760;2024-01-10T22:18:43;107.40;;;53.60;;
71648;SDS011;70112;45.624;11.760;2024-01-10T22:21:09;96.80;;;54.70;;
71648;SDS011;70112;45.624;11.760;2024-01-10T22:23:46;91.50;;;53.30;;
71648;SDS011;70112;45.624;11.760;2024-01-10T22:26:15;90.70;;;52.40;;
71648;SDS011;70112;45.624;11.760;2024-01-10T22:29:08;87.10;;;48.50;;
71648;SDS011;70112;45.624;11.760;2024-01-10T22:31:44;77.70;;;44.20;;
71648;SDS011;70112;45.624;11.760;2024-01-10T22:34:31;87.80;;;45.00;;
71648;SDS011;70112;45.624;11.760;2024-01-10T22:37:27;79.40;;;42.40;;
71648;SDS011;70112;45.624;11.760;2024-01-10T22:40:20;73.50;;;42.30;;
71648;SDS011;70112;45.624;11.760;2024-01-10T22:43:12;79.50;;;45.50;;
71648;SDS011;70112;45.624;11.760;2024-01-10T22:46:21;81.20;;;46.80;;
71648;SDS011;70112;45.624;11.760;2024-01-10T22:49:05;81.20;;;45.60;;
71648;SDS011;70112;45.624;11.760;2024-01-10T22:52:06;76.50;;;45.20;;
71648;SDS011;70112;45.624;11.760;2024-01-10T22:54:37;86.30;;;49.50;;
71648;SDS011;70112;45.624;11.760;2024-01-10T22:57:12;87.90;;;49.20;;
71648;SDS011;70112;45.624;11.760;2024-01-10T23:06:05;105.70;;;53.00;;
71648;SDS011;70112;45.624;11.760;2024-01-10T23:09:06;97.50;;;51.80;;
71648;SDS011;70112;45.624;11.760;2024-01-10T23:11:37;84.00;;;49.50;;
71648;SDS011;70112;45.624;11.760;2024-01-10T23:21:15;65.30;;;41.10;;
71648;SDS011;70112;45.624;11.760;2024-01-10T23:30:49;70.20;;;40.50;;
71648;SDS011;70112;45.624;11.760;2024-01-10T23:34:25;60.30;;;39.30;;
71648;SDS011;70112;45.624;11.760;2024-01-10T23:37:25;67.30;;;39.50;;
71648;SDS011;70112;45.624;11.760;2024-01-10T23:40:19;69.20;;;42.50;;
71648;SDS011;70112;45.624;11.760;2024-01-10T23:43:11;63.00;;;39.70;;
71648;SDS011;70112;45.624;11.760;2024-01-10T23:52:26;60.70;;;35.80;;
